createdAt,value
2022-09-21T00:01:13.650Z,99898.69
2022-09-21T00:03:43.663Z,99893.97
2022-09-21T00:06:13.560Z,99897.06
2022-09-21T00:08:40.345Z,99901.34
2022-09-21T00:11:08.684Z,99898.91
2022-09-21T00:13:37.789Z,99899.69
2022-09-21T00:16:08.023Z,99899.41
2022-09-21T00:18:35.659Z,99900.50
2022-09-21T00:21:07.147Z,99899.34
2022-09-21T00:23:36.098Z,99911.22
2022-09-21T00:26:22.676Z,99897.53
2022-09-21T00:28:54.591Z,99916.31
2022-09-21T00:31:21.837Z,99907.41
2022-09-21T00:33:48.988Z,99907.00
2022-09-21T00:36:17.707Z,99909.66
2022-09-21T00:38:46.097Z,99908.53
2022-09-21T00:41:13.582Z,99915.72
2022-09-21T00:43:47.237Z,99909.75
2022-09-21T00:46:28.148Z,99922.91
2022-09-21T00:48:54.828Z,99913.41
2022-09-21T00:51:21.654Z,99915.75
2022-09-21T00:53:51.884Z,99910.22
2022-09-21T00:56:20.252Z,99918.03
2022-09-21T00:58:48.444Z,99902.03
2022-09-21T01:01:18.735Z,99898.16
2022-09-21T01:03:49.477Z,99907.19
2022-09-21T01:06:18.654Z,99909.88
2022-09-21T01:08:47.413Z,99898.44
2022-09-21T01:11:50.782Z,99909.16
2022-09-21T01:14:31.478Z,99904.44
2022-09-21T01:17:09.490Z,99905.25
2022-09-21T01:20:00.988Z,99897.13
2022-09-21T01:22:30.451Z,99899.97
2022-09-21T01:25:12.090Z,99907.59
2022-09-21T01:27:52.108Z,99902.03
2022-09-21T01:30:20.618Z,99904.34
2022-09-21T01:33:03.445Z,99904.13
2022-09-21T01:35:39.991Z,99897.75
2022-09-21T01:38:14.070Z,99904.78
2022-09-21T01:40:44.070Z,99902.34
2022-09-21T01:43:14.313Z,99907.69
2022-09-21T01:45:45.694Z,99909.75
2022-09-21T01:48:13.786Z,99907.66
2022-09-21T01:50:46.945Z,99908.28
2022-09-21T01:53:18.750Z,99914.03
2022-09-21T01:55:55.608Z,99909.53
2022-09-21T01:58:34.170Z,99909.72
2022-09-21T02:01:01.277Z,99911.53
2022-09-21T02:03:37.308Z,99916.00
2022-09-21T02:06:04.982Z,99911.06
2022-09-21T02:08:32.370Z,99919.13
2022-09-21T02:11:00.929Z,99912.13
2022-09-21T02:13:32.226Z,99921.75
2022-09-21T02:16:08.293Z,99918.88
2022-09-21T02:18:57.408Z,99917.47
2022-09-21T02:21:40.784Z,99919.31
2022-09-21T02:24:25.955Z,99925.88
2022-09-21T02:27:04.307Z,99926.66
2022-09-21T02:29:49.975Z,99931.19
2022-09-21T02:32:35.210Z,99924.00
2022-09-21T02:35:22.573Z,99918.19
2022-09-21T02:37:56.903Z,99928.22
2022-09-21T02:40:31.482Z,99931.13
2022-09-21T02:43:02.479Z,99943.22
2022-09-21T02:45:34.316Z,99941.53
2022-09-21T02:48:17.005Z,99927.81
2022-09-21T02:51:10.410Z,99936.06
2022-09-21T02:53:38.758Z,99929.75
2022-09-21T02:56:07.334Z,99937.13
2022-09-21T02:58:41.345Z,99933.66
2022-09-21T03:01:11.157Z,99945.41
2022-09-21T03:03:38.133Z,99941.72
2022-09-21T03:06:05.068Z,99936.63
2022-09-21T03:08:31.623Z,99931.41
2022-09-21T03:10:58.289Z,99938.31
2022-09-21T03:13:25.303Z,99942.00
2022-09-21T03:16:01.674Z,99948.78
2022-09-21T03:18:28.954Z,99947.94
2022-09-21T03:20:55.528Z,99948.53
2022-09-21T03:23:22.164Z,99945.69
2022-09-21T03:25:50.095Z,99954.13
2022-09-21T03:28:16.727Z,99940.75
2022-09-21T03:30:44.927Z,99939.69
2022-09-21T03:33:12.831Z,99939.94
2022-09-21T03:35:39.634Z,99946.09
2022-09-21T03:38:06.215Z,99947.53
2022-09-21T03:40:33.143Z,99950.25
2022-09-21T03:42:59.857Z,99945.94
2022-09-21T03:45:27.446Z,99952.50
2022-09-21T03:47:58.427Z,99953.28
2022-09-21T03:50:26.529Z,99953.25
2022-09-21T03:52:53.231Z,99953.69
2022-09-21T03:55:19.906Z,99956.56
2022-09-21T03:57:46.577Z,99966.47
2022-09-21T04:00:13.942Z,99958.84
2022-09-21T04:02:40.767Z,99963.97
2022-09-21T04:05:09.290Z,99974.63
2022-09-21T04:07:36.411Z,99976.16
2022-09-21T04:10:08.124Z,99972.53
2022-09-21T04:12:36.383Z,99983.81
2022-09-21T04:15:05.171Z,99982.94
2022-09-21T04:17:31.830Z,99984.75
2022-09-21T04:19:58.437Z,99982.09
2022-09-21T04:22:25.585Z,99986.25
2022-09-21T04:24:52.254Z,99994.84
2022-09-21T04:27:18.935Z,99984.53
2022-09-21T04:29:45.651Z,99988.19
2022-09-21T04:32:12.221Z,99994.25
2022-09-21T04:34:39.518Z,100006.78
2022-09-21T04:37:10.770Z,99994.38
2022-09-21T04:39:37.715Z,100006.56
2022-09-21T04:42:04.816Z,100009.91
2022-09-21T04:44:31.443Z,99999.97
2022-09-21T04:46:58.377Z,100005.88
2022-09-21T04:49:25.074Z,100011.81
2022-09-21T04:51:52.091Z,100013.56
2022-09-21T04:54:18.635Z,100021.63
2022-09-21T04:56:45.253Z,100015.22
2022-09-21T04:59:11.935Z,100014.78
2022-09-21T05:01:38.620Z,100019.41
2022-09-21T05:04:05.750Z,100017.41
2022-09-21T05:06:33.737Z,100023.75
2022-09-21T05:09:19.521Z,100023.75
2022-09-21T05:11:46.379Z,100021.09
2022-09-21T05:14:13.085Z,100030.97
2022-09-21T05:16:39.723Z,100028.66
2022-09-21T05:19:06.604Z,100025.25
2022-09-21T05:21:33.324Z,100034.50
2022-09-21T05:23:59.899Z,100026.28
2022-09-21T05:26:26.467Z,100026.91
2022-09-21T05:28:53.343Z,100031.13
2022-09-21T05:31:30.989Z,100031.59
2022-09-21T05:33:57.595Z,100038.84
2022-09-21T05:36:32.946Z,100030.41
2022-09-21T05:39:00.422Z,100029.84
2022-09-21T05:41:27.347Z,100034.84
2022-09-21T05:43:54.254Z,100038.16
2022-09-21T05:46:56.235Z,100042.91
2022-09-21T05:49:29.877Z,100045.03
2022-09-21T05:52:02.461Z,100043.19
2022-09-21T05:54:47.240Z,100050.22
2022-09-21T05:57:15.574Z,100045.72
2022-09-21T05:59:59.457Z,100046.72
2022-09-21T06:02:47.539Z,100053.88
2022-09-21T06:05:15.195Z,100053.97
2022-09-21T06:07:41.995Z,100039.25
2022-09-21T06:10:10.075Z,100052.13
2022-09-21T06:12:36.605Z,100050.66
2022-09-21T06:15:04.290Z,100051.03
2022-09-21T06:17:32.557Z,100060.16
2022-09-21T06:19:59.387Z,100057.41
2022-09-21T06:22:25.973Z,100059.97
2022-09-21T06:24:52.519Z,100059.31
2022-09-21T06:27:19.052Z,100066.06
2022-09-21T06:29:45.625Z,100068.81
2022-09-21T06:32:12.454Z,100062.84
2022-09-21T06:34:39.045Z,100067.53
2022-09-21T06:37:05.626Z,100068.34
2022-09-21T06:39:32.237Z,100069.13
2022-09-21T06:41:59.471Z,100075.44
2022-09-21T06:44:26.385Z,100068.94
2022-09-21T06:46:52.929Z,100085.13
2022-09-21T06:49:19.493Z,100074.31
2022-09-21T06:51:47.921Z,100089.72
2022-09-21T06:54:14.823Z,100087.38
2022-09-21T06:56:43.255Z,100087.69
2022-09-21T06:59:09.845Z,100086.00
2022-09-21T07:01:36.616Z,100088.31
2022-09-21T07:04:03.270Z,100098.81
2022-09-21T07:06:30.080Z,100096.25
2022-09-21T07:11:43.275Z,100097.50
2022-09-21T07:14:09.805Z,100094.28
2022-09-21T07:16:37.091Z,100098.75
2022-09-21T07:19:10.989Z,100102.47
2022-09-21T07:21:38.180Z,100108.69
2022-09-21T07:24:09.575Z,100100.03
2022-09-21T07:26:38.435Z,100101.94
2022-09-21T07:29:05.186Z,100104.53
2022-09-21T07:31:32.049Z,100103.75
2022-09-21T07:33:59.152Z,100107.16
2022-09-21T07:36:25.785Z,100099.63
2022-09-21T07:38:53.938Z,100108.59
2022-09-21T07:41:21.130Z,100108.38
2022-09-21T07:43:47.729Z,100103.28
2022-09-21T07:46:15.240Z,100112.25
2022-09-21T07:48:41.975Z,100112.13
2022-09-21T07:51:11.121Z,100103.94
2022-09-21T07:53:39.259Z,100114.97
2022-09-21T07:56:08.614Z,100109.38
2022-09-21T07:58:55.293Z,100120.97
2022-09-21T08:01:22.625Z,100112.03
2022-09-21T08:03:50.792Z,100117.13
2022-09-21T08:06:18.167Z,100106.06
2022-09-21T08:08:47.840Z,100101.78
2022-09-21T08:11:19.779Z,100106.25
2022-09-21T08:13:46.393Z,100107.47
2022-09-21T08:16:12.975Z,100110.00
2022-09-21T08:18:41.281Z,100110.22
2022-09-21T08:21:12.048Z,100112.09
2022-09-21T08:23:42.772Z,100112.81
2022-09-21T08:26:16.448Z,100107.72
2022-09-21T08:28:43.790Z,100108.47
2022-09-21T08:31:10.843Z,100115.13
2022-09-21T08:33:37.494Z,100117.72
2022-09-21T08:36:04.365Z,100106.50
2022-09-21T08:38:35.562Z,100108.06
2022-09-21T08:41:04.781Z,100101.84
2022-09-21T08:43:40.836Z,100116.13
2022-09-21T08:46:11.209Z,100108.44
2022-09-21T08:48:42.390Z,100111.22
2022-09-21T08:51:11.522Z,100102.69
2022-09-21T08:53:46.175Z,100108.22
2022-09-21T08:56:14.273Z,100109.50
2022-09-21T08:58:41.288Z,100108.28
2022-09-21T09:01:21.648Z,100109.06
2022-09-21T09:04:05.643Z,100115.16
2022-09-21T09:06:47.461Z,100115.13
2022-09-21T09:09:20.029Z,100108.47
2022-09-21T09:11:58.726Z,100111.91
2022-09-21T09:15:02.221Z,100111.50
2022-09-21T09:17:46.421Z,100102.66
2022-09-21T09:20:18.779Z,100106.13
2022-09-21T09:22:52.746Z,100103.50
2022-09-21T09:25:22.086Z,100102.53
2022-09-21T09:27:57.190Z,100092.81
2022-09-21T09:30:26.205Z,100092.78
2022-09-21T09:32:55.678Z,100092.06
2022-09-21T09:35:33.117Z,100097.13
2022-09-21T09:38:14.701Z,100093.97
2022-09-21T09:40:48.709Z,100102.84
2022-09-21T09:43:38.498Z,100096.50
2022-09-21T09:46:13.225Z,100098.91
2022-09-21T09:48:53.900Z,100101.78
2022-09-21T09:51:21.033Z,100092.84
2022-09-21T09:53:47.602Z,100094.50
2022-09-21T09:56:14.858Z,100098.50
2022-09-21T09:58:50.870Z,100096.50
2022-09-21T10:01:38.252Z,100097.94
2022-09-21T10:04:10.123Z,100091.81
2022-09-21T10:06:38.619Z,100088.97
2022-09-21T10:09:31.314Z,100088.06
2022-09-21T10:12:08.128Z,100088.34
2022-09-21T10:14:36.753Z,100087.59
2022-09-21T10:17:07.938Z,100074.78
2022-09-21T10:19:34.783Z,100077.25
2022-09-21T10:22:02.682Z,100080.63
2022-09-21T10:24:33.403Z,100084.13
2022-09-21T10:27:12.392Z,100083.53
2022-09-21T10:29:47.691Z,100076.41
2022-09-21T10:32:15.089Z,100078.41
2022-09-21T10:35:00.891Z,100078.75
2022-09-21T10:37:30.856Z,100066.13
2022-09-21T10:39:57.657Z,100066.75
2022-09-21T10:42:24.215Z,100055.66
2022-09-21T10:45:07.194Z,100062.97
2022-09-21T10:47:40.861Z,100061.75
2022-09-21T10:50:29.043Z,100058.63
2022-09-21T10:53:00.568Z,100067.81
2022-09-21T10:55:28.670Z,100066.25
2022-09-21T10:57:55.476Z,100077.13
2022-09-21T11:00:24.711Z,100052.69
2022-09-21T11:02:51.920Z,100047.88
2022-09-21T11:05:34.315Z,100062.50
2022-09-21T11:08:20.448Z,100069.22
2022-09-21T11:11:14.629Z,100069.78
2022-09-21T11:13:48.097Z,100055.50
2022-09-21T11:16:35.164Z,100055.84
2022-09-21T11:19:13.286Z,100061.75
2022-09-21T11:21:46.899Z,100057.66
2022-09-21T11:24:20.028Z,100057.16
2022-09-21T11:27:14.477Z,100065.59
2022-09-21T11:30:11.282Z,100060.34
2022-09-21T11:32:41.374Z,100069.84
2022-09-21T11:35:27.588Z,100063.63
2022-09-21T11:38:13.425Z,100060.66
2022-09-21T11:40:55.833Z,100061.66
2022-09-21T11:43:34.344Z,100061.25
2022-09-21T11:46:01.488Z,100060.00
2022-09-21T11:48:44.675Z,100061.13
2022-09-21T11:51:24.114Z,100059.50
2022-09-21T11:54:15.447Z,100046.44
2022-09-21T11:56:56.451Z,100049.09
2022-09-21T11:59:29.877Z,100052.31
2022-09-21T12:02:02.629Z,100042.25
2022-09-21T12:04:39.409Z,100039.22
2022-09-21T12:07:30.230Z,100046.09
2022-09-21T12:10:18.745Z,100039.97
2022-09-21T12:13:17.399Z,100039.78
2022-09-21T12:16:06.259Z,100039.47
2022-09-21T12:18:42.546Z,100044.47
2022-09-21T12:21:36.352Z,100032.56
2022-09-21T12:24:15.297Z,100027.81
2022-09-21T12:26:50.435Z,100030.03
2022-09-21T12:29:26.726Z,100038.16
2022-09-21T12:32:05.667Z,100032.66
2022-09-21T12:34:42.040Z,100029.41
2022-09-21T12:37:36.198Z,100024.25
2022-09-21T12:40:07.067Z,100025.00
2022-09-21T12:42:50.073Z,100022.78
2022-09-21T12:45:21.250Z,100026.16
2022-09-21T12:48:06.628Z,100036.84
2022-09-21T12:50:50.253Z,100022.22
2022-09-21T12:53:22.094Z,100019.13
2022-09-21T12:56:05.439Z,100023.88
2022-09-21T12:58:53.869Z,100014.59
2022-09-21T13:01:30.653Z,100011.56
2022-09-21T13:04:09.614Z,100018.69
2022-09-21T13:06:54.862Z,100009.91
2022-09-21T13:09:22.769Z,100007.09
2022-09-21T13:12:34.595Z,100004.13
2022-09-21T13:15:13.726Z,100004.38
2022-09-21T13:17:40.973Z,100005.31
2022-09-21T13:20:17.185Z,100002.88
2022-09-21T13:22:45.163Z,99985.03
2022-09-21T13:25:17.793Z,100001.13
2022-09-21T13:28:09.053Z,99994.13
2022-09-21T13:30:41.495Z,99989.34
2022-09-21T13:33:20.253Z,99989.31
2022-09-21T13:36:05.122Z,99985.56
2022-09-21T13:38:58.480Z,99982.50
2022-09-21T13:41:45.499Z,99983.03
2022-09-21T13:44:42.670Z,99985.38
2022-09-21T13:47:11.954Z,99985.09
2022-09-21T13:49:51.132Z,99978.25
2022-09-21T13:52:26.656Z,99978.09
2022-09-21T13:55:05.844Z,99981.47
2022-09-21T13:57:40.132Z,99984.59
2022-09-21T14:00:29.688Z,99976.72
2022-09-21T14:03:04.357Z,99986.38
2022-09-21T14:05:45.943Z,99975.97
2022-09-21T14:08:15.584Z,99993.91
2022-09-21T14:11:02.580Z,99975.84
2022-09-21T14:13:36.923Z,99982.66
2022-09-21T14:16:45.753Z,99971.59
2022-09-21T14:19:18.082Z,99973.34
2022-09-21T14:22:07.744Z,99976.38
2022-09-21T14:24:43.662Z,99971.44
2022-09-21T14:27:32.435Z,99970.69
2022-09-21T14:30:07.135Z,99967.47
2022-09-21T14:32:39.432Z,99968.41
2022-09-21T14:35:11.455Z,99965.78
2022-09-21T14:37:41.292Z,99969.41
2022-09-21T14:40:31.251Z,99971.38
2022-09-21T14:43:00.557Z,99969.28
2022-09-21T14:45:58.090Z,99966.16
2022-09-21T14:48:30.434Z,99963.75
2022-09-21T14:51:02.209Z,99970.31
2022-09-21T14:54:19.636Z,99977.50
2022-09-21T14:56:55.541Z,99986.25
2022-09-21T14:59:35.734Z,99968.22
2022-09-21T15:02:23.559Z,99979.78
2022-09-21T15:04:56.095Z,99989.25
2022-09-21T15:07:55.991Z,99981.72
2022-09-21T15:10:56.172Z,99973.72
2022-09-21T15:13:49.473Z,99974.03
2022-09-21T15:16:25.769Z,99967.97
2022-09-21T15:19:08.577Z,99964.53
2022-09-21T15:21:35.622Z,99971.69
2022-09-21T15:24:16.872Z,99974.75
2022-09-21T15:26:43.750Z,99977.13
2022-09-21T15:29:21.593Z,99968.75
2022-09-21T15:31:48.549Z,99968.19
2022-09-21T15:34:15.403Z,99971.97
2022-09-21T15:36:43.617Z,99971.97
2022-09-21T15:39:30.873Z,99975.13
2022-09-21T15:42:09.608Z,99975.72
2022-09-21T15:44:38.351Z,99966.94
2022-09-21T15:47:12.541Z,99971.41
2022-09-21T15:49:39.648Z,99969.44
2022-09-21T15:52:13.977Z,99974.84
2022-09-21T15:54:48.982Z,99975.44
2022-09-21T15:57:39.165Z,99974.84
2022-09-21T16:00:21.391Z,99985.72
2022-09-21T16:03:07.420Z,99979.84
2022-09-21T16:05:45.955Z,99980.09
2022-09-21T16:08:33.838Z,99984.19
2022-09-21T16:11:28.993Z,99984.19
2022-09-21T16:14:34.613Z,99991.09
2022-09-21T16:17:04.333Z,99988.91
2022-09-21T16:19:42.157Z,99984.91
2022-09-21T16:22:13.898Z,99990.91
2022-09-21T16:24:52.736Z,99983.47
2022-09-21T16:27:21.114Z,99983.59
2022-09-21T16:29:49.758Z,99987.97
2022-09-21T16:32:20.800Z,99988.66
2022-09-21T16:34:48.704Z,99991.91
2022-09-21T16:37:28.724Z,99992.53
2022-09-21T16:39:57.207Z,99992.22
2022-09-21T16:42:27.877Z,99997.47
2022-09-21T16:44:55.325Z,99993.06
2022-09-21T16:47:25.106Z,100000.47
2022-09-21T16:49:55.330Z,100002.44
2022-09-21T16:52:25.281Z,100003.41
2022-09-21T16:54:52.001Z,100006.63
2022-09-21T16:57:18.872Z,100028.44
2022-09-21T16:59:45.471Z,100005.69
2022-09-21T17:02:14.091Z,100015.97
2022-09-21T17:04:41.352Z,100009.94
2022-09-21T17:07:11.193Z,100004.56
2022-09-21T17:09:39.417Z,100008.00
2022-09-21T17:12:07.941Z,100017.78
2022-09-21T17:14:35.844Z,100022.16
2022-09-21T17:17:17.190Z,100012.53
2022-09-21T17:19:46.414Z,100014.25
2022-09-21T17:22:17.255Z,100022.06
2022-09-21T17:24:51.173Z,100020.25
2022-09-21T17:27:21.261Z,100020.97
2022-09-21T17:29:49.501Z,100021.78
2022-09-21T17:32:21.851Z,100026.38
2022-09-21T17:34:58.784Z,100036.31
2022-09-21T17:37:25.623Z,100035.53
2022-09-21T17:39:53.642Z,100031.47
2022-09-21T17:42:23.011Z,100027.56
2022-09-21T17:44:49.492Z,100034.56
2022-09-21T17:47:24.758Z,100038.09
2022-09-21T17:49:51.633Z,100033.56
2022-09-21T17:52:38.914Z,100034.03
2022-09-21T17:55:10.268Z,100027.59
2022-09-21T17:57:52.207Z,100047.94
2022-09-21T18:00:41.340Z,100035.50
2022-09-21T18:03:42.553Z,100043.50
2022-09-21T18:06:09.866Z,100049.47
2022-09-21T18:08:38.383Z,100042.91
2022-09-21T18:11:24.785Z,100046.84
2022-09-21T18:14:01.601Z,100032.63
2022-09-21T18:16:35.452Z,100046.59
2022-09-21T18:19:24.568Z,100041.09
2022-09-21T18:21:57.395Z,100044.00
2022-09-21T18:24:31.025Z,100045.44
2022-09-21T18:26:58.616Z,100055.09
2022-09-21T18:29:41.635Z,100062.72
2022-09-21T18:32:16.824Z,100056.13
2022-09-21T18:35:08.626Z,100069.69
2022-09-21T18:37:51.625Z,100069.94
2022-09-21T18:40:28.849Z,100073.66
2022-09-21T18:43:06.170Z,100066.84
2022-09-21T18:45:53.739Z,100070.78
2022-09-21T18:48:26.089Z,100076.56
2022-09-21T18:51:14.137Z,100078.41
2022-09-21T18:53:56.428Z,100073.66
2022-09-21T18:56:24.842Z,100076.56
2022-09-21T18:58:51.804Z,100072.03
2022-09-21T19:01:21.807Z,100072.84
2022-09-21T19:03:49.728Z,100073.44
2022-09-21T19:06:42.720Z,100070.56
2022-09-21T19:09:41.866Z,100080.69
2022-09-21T19:12:14.409Z,100087.06
2022-09-21T19:14:54.154Z,100079.47
2022-09-21T19:17:32.420Z,100083.41
2022-09-21T19:20:13.919Z,100090.22
2022-09-21T19:22:59.141Z,100087.53
2022-09-21T19:25:34.107Z,100081.56
2022-09-21T19:28:05.242Z,100085.25
2022-09-21T19:30:32.200Z,100087.13
2022-09-21T19:33:00.022Z,100093.91
2022-09-21T19:35:31.395Z,100087.53
2022-09-21T19:38:01.437Z,100088.97
2022-09-21T19:40:37.750Z,100084.03
2022-09-21T19:43:22.670Z,100086.91
2022-09-21T19:46:11.552Z,100086.69
2022-09-21T19:48:52.162Z,100089.19
2022-09-21T19:51:34.491Z,100085.88
2022-09-21T19:54:20.286Z,100080.72
2022-09-21T19:57:08.563Z,100087.31
2022-09-21T19:59:44.322Z,100079.69
2022-09-21T20:02:33.459Z,100087.91
2022-09-21T20:05:08.723Z,100082.38
2022-09-21T20:07:44.182Z,100087.94
2022-09-21T20:10:24.068Z,100081.97
2022-09-21T20:13:22.037Z,100083.81
2022-09-21T20:15:52.484Z,100083.59
2022-09-21T20:18:21.852Z,100085.28
2022-09-21T20:20:48.495Z,100086.28
2022-09-21T20:23:15.206Z,100086.69
2022-09-21T20:25:56.877Z,100087.09
2022-09-21T20:28:24.188Z,100091.25
2022-09-21T20:30:50.844Z,100087.53
2022-09-21T20:33:22.742Z,100089.59
2022-09-21T20:35:50.382Z,100096.59
2022-09-21T20:38:17.927Z,100091.66
2022-09-21T20:40:45.245Z,100091.66
2022-09-21T20:43:12.070Z,100095.78
2022-09-21T20:45:40.821Z,100096.78
2022-09-21T20:48:14.490Z,100092.69
2022-09-21T20:50:46.774Z,100094.13
2022-09-21T20:53:13.512Z,100094.72
2022-09-21T20:55:41.080Z,100098.00
2022-09-21T20:58:11.434Z,100101.91
2022-09-21T21:00:38.100Z,100093.25
2022-09-21T21:03:05.269Z,100106.41
2022-09-21T21:05:32.771Z,100100.44
2022-09-21T21:07:59.354Z,100095.28
2022-09-21T21:10:25.960Z,100097.34
2022-09-21T21:12:52.562Z,100094.66
2022-09-21T21:15:19.135Z,100106.16
2022-09-21T21:17:47.195Z,100102.44
2022-09-21T21:20:16.293Z,100102.19
2022-09-21T21:22:44.346Z,100102.38
2022-09-21T21:25:11.275Z,100091.69
2022-09-21T21:27:38.003Z,100096.63
2022-09-21T21:30:05.546Z,100110.34
2022-09-21T21:32:32.547Z,100099.63
2022-09-21T21:34:59.188Z,100096.13
2022-09-21T21:37:26.549Z,100092.19
2022-09-21T21:39:53.822Z,100096.13
2022-09-21T21:42:21.016Z,100094.22
2022-09-21T21:44:48.563Z,100089.66
2022-09-21T21:47:38.316Z,100095.81
2022-09-21T21:50:01.781Z,100094.53
2022-09-21T21:52:28.379Z,100092.63
2022-09-21T21:54:55.019Z,100085.19
2022-09-21T21:57:21.550Z,100081.03
2022-09-21T21:59:48.296Z,100082.78
2022-09-21T22:02:15.448Z,100077.84
2022-09-21T22:04:42.237Z,100075.09
2022-09-21T22:07:08.775Z,100068.50
2022-09-21T22:09:35.430Z,100068.09
2022-09-21T22:12:03.584Z,100062.28
2022-09-21T22:14:30.346Z,100061.03
2022-09-21T22:16:59.185Z,100066.38
2022-09-21T22:19:26.049Z,100063.88
2022-09-21T22:21:54.438Z,100077.63
2022-09-21T22:24:21.675Z,100063.44
2022-09-21T22:26:48.689Z,100078.56
2022-09-21T22:29:17.141Z,100075.72
2022-09-21T22:31:49.824Z,100078.56
2022-09-21T22:34:16.788Z,100079.53
2022-09-21T22:36:43.956Z,100083.78
2022-09-21T22:39:11.538Z,100079.78
2022-09-21T22:41:39.974Z,100079.00
2022-09-21T22:44:07.201Z,100084.13
2022-09-21T22:46:34.427Z,100077.50
2022-09-21T22:49:01.376Z,100077.91
2022-09-21T22:51:28.620Z,100073.19
2022-09-21T22:53:55.428Z,100080.25
2022-09-21T22:56:24.462Z,100075.25
2022-09-21T22:58:53.163Z,100069.44
2022-09-21T23:01:26.377Z,100069.66
2022-09-21T23:03:55.481Z,100059.75
2022-09-21T23:06:23.470Z,100055.81
2022-09-21T23:08:50.804Z,100057.84
2022-09-21T23:11:21.837Z,100059.63
2022-09-21T23:13:49.113Z,100055.47
2022-09-21T23:16:16.898Z,100044.59
2022-09-21T23:18:44.214Z,100064.06
2022-09-21T23:21:14.110Z,100046.34
2022-09-21T23:23:41.394Z,100050.03
2022-09-21T23:26:34.920Z,100048.59
2022-09-21T23:29:03.804Z,100051.00
2022-09-21T23:31:31.810Z,100048.50
2022-09-21T23:34:00.586Z,100043.75
2022-09-21T23:36:29.278Z,100050.28
2022-09-21T23:38:56.525Z,100050.88
2022-09-21T23:41:34.151Z,100052.06
2022-09-21T23:44:01.581Z,100055.72
2022-09-21T23:46:32.835Z,100055.38
2022-09-21T23:49:00.502Z,100052.88
2022-09-21T23:51:27.574Z,100044.53
2022-09-21T23:53:54.182Z,100047.72
2022-09-21T23:56:22.671Z,100042.88
2022-09-21T23:58:49.465Z,100046.22
